createdAt,value
2023-02-08T00:00:02.139Z,1011.7157
2023-02-08T00:01:01.660Z,1011.8252
2023-02-08T00:02:02.136Z,1011.6289
2023-02-08T00:03:01.689Z,1011.5876
2023-02-08T00:04:03.976Z,1011.5801
2023-02-08T00:05:01.719Z,1011.789
2023-02-08T00:06:02.823Z,1011.5162
2023-02-08T00:07:01.737Z,1011.6176
2023-02-08T00:08:02.291Z,1011.5889
2023-02-08T00:09:01.803Z,1011.6958
2023-02-08T00:10:02.295Z,1011.6756
2023-02-08T00:11:03.475Z,1011.527
2023-02-08T00:12:02.367Z,1011.6218
2023-02-08T00:13:01.882Z,1011.7431
2023-02-08T00:14:01.408Z,1011.805
2023-02-08T00:15:01.880Z,1011.6392
2023-02-08T00:16:01.457Z,1011.6392
2023-02-08T00:17:01.894Z,1011.5043
2023-02-08T00:18:01.401Z,1011.5863
2023-02-08T00:19:01.898Z,1011.5935
2023-02-08T00:20:01.398Z,1011.6392
2023-02-08T00:21:01.964Z,1011.7212
2023-02-08T00:22:01.428Z,1011.5671
2023-02-08T00:23:03.639Z,1011.6929
2023-02-08T00:24:01.506Z,1011.6594
2023-02-08T00:25:01.964Z,1011.6068
2023-02-08T00:26:03.204Z,1011.6401
2023-02-08T00:27:02.045Z,1011.6919
2023-02-08T00:28:03.926Z,1011.6574
2023-02-08T00:29:02.077Z,1011.4545
2023-02-08T00:30:01.593Z,1011.5912
2023-02-08T00:31:02.140Z,1011.5974
2023-02-08T00:32:01.627Z,1011.5639
2023-02-08T00:33:02.144Z,1011.6857
2023-02-08T00:34:01.562Z,1011.8033
2023-02-08T00:35:02.134Z,1011.6463
2023-02-08T00:36:01.627Z,1011.6665
2023-02-08T00:37:02.121Z,1011.6218
2023-02-08T00:38:01.675Z,1011.4769
2023-02-08T00:39:02.207Z,1011.6199
2023-02-08T00:40:01.753Z,1011.5984
2023-02-08T00:41:03.886Z,1011.5639
2023-02-08T00:42:01.713Z,1011.718
2023-02-08T00:43:03.958Z,1011.6695
2023-02-08T00:44:01.813Z,1011.6459
2023-02-08T00:45:04.596Z,1011.6421
2023-02-08T00:46:01.796Z,1011.5903
2023-02-08T00:47:02.358Z,1011.5418
2023-02-08T00:48:03.573Z,1011.7505
2023-02-08T00:49:04.024Z,1011.52
2023-02-08T00:50:01.867Z,1011.6538
2023-02-08T00:51:01.392Z,1011.5877
2023-02-08T00:52:03.578Z,1011.7752
2023-02-08T00:53:01.393Z,1011.7954
2023-02-08T00:54:01.879Z,1011.6424
2023-02-08T00:55:01.427Z,1011.7752
2023-02-08T00:56:01.875Z,1011.8511
2023-02-08T00:57:01.508Z,1011.7752
2023-02-08T00:58:03.545Z,1011.8289
2023-02-08T00:59:01.490Z,1011.8214
2023-02-08T01:00:02.049Z,1011.7811
2023-02-08T01:01:01.663Z,1011.674
2023-02-08T01:02:02.076Z,1011.6623
2023-02-08T01:03:01.582Z,1011.7232
2023-02-08T01:04:02.130Z,1011.6238
2023-02-08T01:05:01.630Z,1011.5545
2023-02-08T01:06:02.145Z,1011.8052
2023-02-08T01:07:01.627Z,1011.7027
2023-02-08T01:08:02.196Z,1011.6238
2023-02-08T01:09:01.716Z,1011.8052
2023-02-08T01:10:02.211Z,1011.7505
2023-02-08T01:11:01.735Z,1011.8511
2023-02-08T01:12:02.267Z,1011.7811
2023-02-08T01:13:01.799Z,1011.8511
2023-02-08T01:14:02.284Z,1011.6685
2023-02-08T01:15:01.805Z,1012.0513
2023-02-08T01:16:02.295Z,1011.8856
2023-02-08T01:17:03.472Z,1011.7752
2023-02-08T01:18:02.350Z,1011.6128
2023-02-08T01:19:01.887Z,1011.9595
2023-02-08T01:20:01.329Z,1011.8299
2023-02-08T01:21:01.870Z,1011.7752
2023-02-08T01:22:03.069Z,1011.7085
2023-02-08T01:23:01.950Z,1011.8856
2023-02-08T01:24:02.076Z,1011.5047
2023-02-08T01:25:01.959Z,1011.7062
2023-02-08T01:26:01.492Z,1011.8488
2023-02-08T01:27:02.044Z,1011.6574
2023-02-08T01:28:01.587Z,1011.6574
2023-02-08T01:29:02.049Z,1011.6128
2023-02-08T01:30:03.233Z,1011.6128
2023-02-08T01:31:02.047Z,1011.6401
2023-02-08T01:32:01.571Z,1011.5285
2023-02-08T01:33:02.123Z,1011.6176
2023-02-08T01:34:01.642Z,1011.6607
2023-02-08T01:35:02.143Z,1011.6294
2023-02-08T01:36:01.660Z,1011.6294
2023-02-08T01:37:02.119Z,1011.6235
2023-02-08T01:38:01.636Z,1011.7668
2023-02-08T01:39:02.227Z,1011.7752
2023-02-08T01:40:01.714Z,1011.615
2023-02-08T01:41:02.201Z,1011.5047
2023-02-08T01:42:01.716Z,1011.7394
2023-02-08T01:43:02.277Z,1011.4251
2023-02-08T01:44:01.789Z,1011.6552
2023-02-08T01:45:02.275Z,1011.4722
2023-02-08T01:46:01.897Z,1011.6294
2023-02-08T01:47:02.346Z,1011.4846
2023-02-08T01:48:01.869Z,1011.5464
2023-02-08T01:49:01.404Z,1011.5949
2023-02-08T01:50:01.877Z,1011.3623
2023-02-08T01:51:01.386Z,1011.4381
2023-02-08T01:52:01.971Z,1011.6294
2023-02-08T01:53:01.394Z,1011.3896
2023-02-08T01:54:03.659Z,1011.4108
2023-02-08T01:55:01.487Z,1011.3431
2023-02-08T01:56:01.965Z,1011.4595
2023-02-08T01:57:01.490Z,1011.3157
2023-02-08T01:58:02.043Z,1011.4192
2023-02-08T01:59:01.562Z,1011.235
2023-02-08T02:00:03.720Z,1011.2263
2023-02-08T02:01:01.619Z,1011.5949
2023-02-08T02:02:03.725Z,1011.4856
2023-02-08T02:03:02.198Z,1011.5191
2023-02-08T02:04:02.190Z,1011.5107
2023-02-08T02:05:01.654Z,1011.5308
2023-02-08T02:06:02.116Z,1011.3669
2023-02-08T02:07:01.626Z,1011.3669
2023-02-08T02:08:02.215Z,1011.3123
2023-02-08T02:09:01.716Z,1011.5653
2023-02-08T02:10:02.194Z,1011.3871
2023-02-08T02:11:01.715Z,1011.2434
2023-02-08T02:12:02.288Z,1011.2635
2023-02-08T02:13:01.816Z,1011.4274
2023-02-08T02:14:03.941Z,1011.2635
2023-02-08T02:15:01.798Z,1011.4274
2023-02-08T02:16:04.208Z,1011.3728
2023-02-08T02:17:01.883Z,1011.3051
2023-02-08T02:19:03.496Z,1011.4108
2023-02-08T02:20:02.353Z,1011.4176
2023-02-08T02:21:03.545Z,1011.3561
2023-02-08T02:22:03.079Z,1011.3064
2023-02-08T02:23:01.890Z,1011.4144
2023-02-08T02:24:03.136Z,1011.5367
2023-02-08T02:25:01.912Z,1011.3104
2023-02-08T02:26:01.416Z,1011.5159
2023-02-08T02:27:01.950Z,1011.4954
2023-02-08T02:28:01.500Z,1011.2769
2023-02-08T02:29:03.636Z,1011.2558
2023-02-08T02:30:03.152Z,1011.3104
2023-02-08T02:31:02.072Z,1011.3377
2023-02-08T02:32:01.546Z,1011.2616
2023-02-08T02:33:02.029Z,1011.4398
2023-02-08T02:34:01.558Z,1011.3709
2023-02-08T02:35:02.040Z,1011.4197
2023-02-08T02:36:03.271Z,1011.3104
2023-02-08T02:37:02.107Z,1011.3032
2023-02-08T02:38:03.310Z,1011.3104
2023-02-08T02:39:03.794Z,1011.4954
2023-02-08T02:40:01.630Z,1011.2284
2023-02-08T02:41:02.110Z,1011.3042
2023-02-08T02:42:02.295Z,1011.3042
2023-02-08T02:43:02.189Z,1011.2284
2023-02-08T02:44:01.717Z,1011.2558
2023-02-08T02:45:02.192Z,1011.365
2023-02-08T02:46:01.728Z,1011.2558
2023-02-08T02:47:02.200Z,1011.2635
2023-02-08T02:48:01.716Z,1011.2362
2023-02-08T02:49:03.952Z,1011.3728
2023-02-08T02:50:01.803Z,1011.3315
2023-02-08T02:51:02.281Z,1011.365
2023-02-08T02:52:01.840Z,1011.2818
2023-02-08T02:53:03.957Z,1011.3306
2023-02-08T02:54:01.886Z,1011.3436
2023-02-08T02:55:01.409Z,1011.3163
2023-02-08T02:56:01.874Z,1011.3104
2023-02-08T02:57:01.409Z,1011.3793
2023-02-08T02:58:01.894Z,1011.3852
2023-02-08T02:59:01.422Z,1011.3377
2023-02-08T03:00:03.680Z,1011.27
2023-02-08T03:01:03.104Z,1011.3104
2023-02-08T03:02:03.640Z,1011.447
2023-02-08T03:03:01.473Z,1011.3104
2023-02-08T03:04:02.110Z,1011.4125
2023-02-08T03:05:01.588Z,1011.1999
2023-02-08T03:06:02.080Z,1011.2343
2023-02-08T03:07:03.243Z,1011.2747
2023-02-08T03:08:02.115Z,1011.5003
2023-02-08T03:09:01.647Z,1011.3222
2023-02-08T03:10:02.145Z,1011.4184
2023-02-08T03:11:01.651Z,1011.3364
2023-02-08T03:12:02.198Z,1011.3852
2023-02-08T03:13:01.709Z,1011.2284
2023-02-08T03:14:03.883Z,1011.4125
2023-02-08T03:15:01.853Z,1011.2402
2023-02-08T03:16:02.282Z,1011.2604
2023-02-08T03:17:01.911Z,1011.2877
2023-02-08T03:18:02.285Z,1011.3293
2023-02-08T03:19:01.949Z,1011.2759
2023-02-08T03:20:04.072Z,1011.3306
2023-02-08T03:21:02.425Z,1011.27
2023-02-08T03:22:03.077Z,1011.1738
2023-02-08T03:23:01.891Z,1011.2707
2023-02-08T03:24:01.399Z,1011.1626
2023-02-08T03:25:01.958Z,1011.1626
2023-02-08T03:26:01.495Z,1010.9903
2023-02-08T03:27:01.965Z,1011.1608
2023-02-08T03:28:01.551Z,1011.3104
2023-02-08T03:29:02.050Z,1011.2213
2023-02-08T03:30:01.636Z,1011.0906
2023-02-08T03:31:02.259Z,1011.2474
2023-02-08T03:32:01.693Z,1011.3293
2023-02-08T03:33:02.108Z,1011.4243
2023-02-08T03:34:01.662Z,1011.265
2023-02-08T03:35:02.139Z,1011.2296
2023-02-08T03:36:03.326Z,1011.4409
2023-02-08T03:37:02.141Z,1011.3519
2023-02-08T03:38:01.635Z,1011.2154
2023-02-08T03:39:02.201Z,1011.3792
2023-02-08T03:40:01.738Z,1011.1881
2023-02-08T03:41:02.206Z,1011.4065
2023-02-08T03:42:01.745Z,1011.2154
2023-02-08T03:43:03.891Z,1011.2427
2023-02-08T03:44:03.392Z,1011.3519
2023-02-08T03:45:02.212Z,1011.4884
2023-02-08T03:46:01.790Z,1011.4884
2023-02-08T03:47:03.962Z,1011.2616
2023-02-08T03:48:01.797Z,1011.5346
2023-02-08T03:49:02.275Z,1011.4338
2023-02-08T03:50:01.808Z,1011.3792
2023-02-08T03:51:02.301Z,1011.3519
2023-02-08T03:52:01.803Z,1011.2234
2023-02-08T03:53:02.377Z,1011.2436
2023-02-08T03:54:01.889Z,1011.1071
2023-02-08T03:55:01.404Z,1011.2923
2023-02-08T03:56:01.893Z,1011.2377
2023-02-08T03:57:03.072Z,1011.0516
2023-02-08T03:58:01.968Z,1011.3519
2023-02-08T03:59:01.394Z,1011.4065
2023-02-08T04:00:04.292Z,1011.3519
2023-02-08T04:01:01.495Z,1011.1453
2023-02-08T04:02:01.955Z,1011.6968
2023-02-08T04:03:01.536Z,1011.3832
2023-02-08T04:04:02.034Z,1011.4923
2023-02-08T04:05:01.562Z,1011.3487
2023-02-08T04:06:02.044Z,1011.3143
2023-02-08T04:07:03.254Z,1011.3487
2023-02-08T04:08:02.112Z,1011.3832
2023-02-08T04:09:01.642Z,1011.3143
2023-02-08T04:10:03.828Z,1011.389
2023-02-08T04:11:03.313Z,1011.3344
2023-02-08T04:12:02.131Z,1011.3475
2023-02-08T04:13:01.658Z,1011.6074
2023-02-08T04:14:02.197Z,1011.4163
2023-02-08T04:15:01.720Z,1011.4982
2023-02-08T04:16:03.903Z,1011.4436
2023-02-08T04:17:01.715Z,1011.389
2023-02-08T04:18:03.968Z,1011.4293
2023-02-08T04:19:01.711Z,1011.2926
2023-02-08T04:20:03.949Z,1011.3673
2023-02-08T04:21:01.818Z,1011.2581
2023-02-08T04:22:02.303Z,1011.2572
2023-02-08T04:23:01.798Z,1011.2975
2023-02-08T04:24:02.351Z,1011.4125
2023-02-08T04:25:01.884Z,1011.4125
2023-02-08T04:26:01.412Z,1011.5216
2023-02-08T04:27:02.501Z,1011.5086
2023-02-08T04:28:01.434Z,1011.4473
2023-02-08T04:29:01.882Z,1011.2845
2023-02-08T04:30:01.410Z,1011.3189
2023-02-08T04:31:02.149Z,1011.5456
2023-02-08T04:32:01.477Z,1011.4765
2023-02-08T04:33:01.962Z,1011.4765
2023-02-08T04:34:03.157Z,1011.3673
2023-02-08T04:35:01.964Z,1011.3673
2023-02-08T04:36:01.543Z,1011.62
2023-02-08T04:37:02.042Z,1011.3462
2023-02-08T04:38:02.126Z,1011.4268
2023-02-08T04:39:02.031Z,1011.3164
2023-02-08T04:40:01.634Z,1011.3722
2023-02-08T04:41:02.133Z,1011.4281
2023-02-08T04:42:03.243Z,1011.3663
2023-02-08T04:43:02.126Z,1011.4814
2023-02-08T04:44:01.645Z,1011.4814
2023-02-08T04:45:03.803Z,1011.3579
2023-02-08T04:46:03.392Z,1011.4814
2023-02-08T04:47:03.872Z,1011.6451
2023-02-08T04:48:01.716Z,1011.3579
2023-02-08T04:49:02.205Z,1011.5074
2023-02-08T04:50:01.707Z,1011.5882
2023-02-08T04:51:03.971Z,1011.5882
2023-02-08T04:52:01.840Z,1011.6428
2023-02-08T04:53:03.961Z,1011.383
2023-02-08T04:54:01.813Z,1011.2739
2023-02-08T04:55:02.371Z,1011.3973
2023-02-08T04:56:01.809Z,1011.3486
2023-02-08T04:57:03.972Z,1011.3759
2023-02-08T04:58:01.889Z,1011.4363
2023-02-08T04:59:01.404Z,1011.5454
2023-02-08T05:00:01.908Z,1011.3818
2023-02-08T05:01:01.428Z,1011.3427
2023-02-08T05:02:01.885Z,1011.4125
2023-02-08T05:03:01.434Z,1011.2429
2023-02-08T05:04:03.559Z,1011.3946
2023-02-08T05:05:03.195Z,1011.3546
2023-02-08T05:06:03.633Z,1011.2309
2023-02-08T05:07:03.175Z,1011.2429
2023-02-08T05:08:02.001Z,1011.2882
2023-02-08T05:09:01.489Z,1011.3759
2023-02-08T05:10:03.740Z,1011.1707
2023-02-08T05:11:01.556Z,1011.3071
2023-02-08T05:12:02.042Z,1011.3545
2023-02-08T05:13:01.585Z,1011.5181
2023-02-08T05:14:02.154Z,1011.3941
2023-02-08T05:15:01.657Z,1011.298
2023-02-08T05:16:02.886Z,1011.2373
2023-02-08T05:17:01.655Z,1011.285
2023-02-08T05:18:02.234Z,1011.1617
2023-02-08T05:19:01.724Z,1011.2565
2023-02-08T05:20:03.916Z,1011.3253
2023-02-08T05:21:01.734Z,1011.1818
2023-02-08T05:22:02.321Z,1011.2646
2023-02-08T05:23:01.840Z,1011.1908
2023-02-08T05:24:02.290Z,1011.2999
2023-02-08T05:25:03.506Z,1011.3272
2023-02-08T05:26:03.980Z,1011.2999
2023-02-08T05:27:03.484Z,1011.3253
2023-02-08T05:28:02.368Z,1011.1533
2023-02-08T05:29:01.884Z,1011.2825
2023-02-08T05:30:01.408Z,1011.3098
2023-02-08T05:31:02.049Z,1011.228
2023-02-08T05:32:01.479Z,1011.3098
2023-02-08T05:33:02.001Z,1011.2825
2023-02-08T05:34:01.412Z,1011.2825
2023-02-08T05:35:01.986Z,1010.9353
2023-02-08T05:36:03.199Z,1011.2968
2023-02-08T05:37:02.051Z,1011.3643
2023-02-08T05:38:01.573Z,1011.3098
2023-02-08T05:39:02.080Z,1011.3371
2023-02-08T05:40:01.563Z,1011.1236
2023-02-08T05:41:02.134Z,1011.2398
2023-02-08T05:42:01.649Z,1011.4189
2023-02-08T05:43:02.142Z,1011.3916
2023-02-08T05:44:01.656Z,1011.1735
2023-02-08T05:45:02.151Z,1011.4734
2023-02-08T05:46:01.661Z,1011.2007
2023-02-08T05:47:02.312Z,1011.1735
2023-02-08T05:48:01.719Z,1011.2825
2023-02-08T05:49:02.215Z,1011.228
2023-02-08T05:50:01.762Z,1011.3371
2023-02-08T05:51:02.202Z,1011.4461
2023-02-08T05:52:01.722Z,1011.1307
2023-02-08T05:53:02.284Z,1011.0406
2023-02-08T05:54:01.806Z,1011.28
2023-02-08T05:55:02.902Z,1011.3466
2023-02-08T05:56:01.796Z,1011.4154
2023-02-08T05:57:02.399Z,1011.1285
2023-02-08T05:58:01.887Z,1011.1558
2023-02-08T05:59:01.415Z,1011.0942
2023-02-08T06:00:01.884Z,1011.1747
2023-02-08T06:01:01.400Z,1011.3596
2023-02-08T06:02:02.036Z,1011.3466
2023-02-08T06:03:01.545Z,1011.3466
2023-02-08T06:04:01.999Z,1011.4222
2023-02-08T06:05:01.519Z,1011.4222
2023-02-08T06:06:02.042Z,1011.3417
2023-02-08T06:07:01.565Z,1011.4082
2023-02-08T06:08:02.066Z,1011.3466
2023-02-08T06:09:01.569Z,1011.3667
2023-02-08T06:10:03.799Z,1011.5303
2023-02-08T06:11:01.631Z,1011.3466
2023-02-08T06:12:02.128Z,1011.4011
2023-02-08T06:13:01.671Z,1011.4959
2023-02-08T06:14:02.216Z,1011.3122
2023-02-08T06:15:01.721Z,1011.4971
2023-02-08T06:16:02.295Z,1011.381
2023-02-08T06:17:01.716Z,1011.3122
2023-02-08T06:18:03.996Z,1011.3181
2023-02-08T06:19:01.717Z,1011.3122
2023-02-08T06:20:02.269Z,1011.4757
2023-02-08T06:21:01.804Z,1011.5646
2023-02-08T06:22:02.266Z,1011.2435
2023-02-08T06:23:01.793Z,1011.4757
2023-02-08T06:24:02.385Z,1011.4141
2023-02-08T06:25:01.910Z,1011.5303
2023-02-08T06:26:01.399Z,1011.5848
2023-02-08T06:27:01.869Z,1011.4757
2023-02-08T06:28:03.171Z,1011.6637
2023-02-08T06:29:01.972Z,1011.4556
2023-02-08T06:30:01.476Z,1011.5244
2023-02-08T06:31:03.624Z,1011.4212
2023-02-08T06:32:01.548Z,1011.4757
2023-02-08T06:33:04.233Z,1011.4887
2023-02-08T06:34:02.025Z,1011.6695
2023-02-08T06:35:01.524Z,1011.4271
2023-02-08T06:36:02.048Z,1011.5705
2023-02-08T06:37:01.550Z,1011.4615
2023-02-08T06:38:02.034Z,1011.4485
2023-02-08T06:39:01.611Z,1011.4556
2023-02-08T06:40:02.172Z,1011.599
2023-02-08T06:41:01.792Z,1011.5646
2023-02-08T06:42:03.784Z,1011.5646
2023-02-08T06:43:01.776Z,1011.7325
2023-02-08T06:44:02.214Z,1011.599
2023-02-08T06:45:01.855Z,1011.7133
2023-02-08T06:46:02.243Z,1011.6588
2023-02-08T06:47:01.770Z,1011.6588
2023-02-08T06:48:02.262Z,1011.8224
2023-02-08T06:49:01.864Z,1011.7276
2023-02-08T06:50:02.284Z,1011.7906
2023-02-08T06:51:01.788Z,1011.6143
2023-02-08T06:52:02.346Z,1011.6143
2023-02-08T06:53:01.882Z,1011.7266
2023-02-08T06:54:01.405Z,1011.5799
2023-02-08T06:55:03.563Z,1011.6517
2023-02-08T06:56:03.057Z,1011.7133
2023-02-08T06:57:03.543Z,1011.7276
2023-02-08T06:58:01.388Z,1011.7678
2023-02-08T06:59:01.938Z,1011.7607
2023-02-08T07:00:01.564Z,1011.7276
2023-02-08T07:01:01.969Z,1011.5552
2023-02-08T07:02:01.690Z,1011.7906
2023-02-08T07:03:02.037Z,1011.637
2023-02-08T07:04:01.561Z,1011.7906
2023-02-08T07:05:02.053Z,1011.7906
2023-02-08T07:06:05.346Z,1011.637
2023-02-08T07:07:02.112Z,1011.9282
2023-02-08T07:08:01.552Z,1011.8938
2023-02-08T07:09:02.104Z,1011.5279
2023-02-08T07:10:01.673Z,1011.624
2023-02-08T07:11:03.880Z,1011.5493
2023-02-08T07:12:01.668Z,1011.5493
2023-02-08T07:13:02.194Z,1011.9627
2023-02-08T07:14:01.647Z,1011.6828
2023-02-08T07:15:02.231Z,1011.7516
2023-02-08T07:16:01.714Z,1011.4958
2023-02-08T07:17:02.209Z,1011.6123
2023-02-08T07:18:01.712Z,1011.4353
2023-02-08T07:19:02.278Z,1011.699
2023-02-08T07:20:01.804Z,1011.6731
2023-02-08T07:21:02.266Z,1011.4648
2023-02-08T07:22:01.818Z,1011.6874
2023-02-08T07:23:02.272Z,1011.5275
2023-02-08T07:24:03.476Z,1011.8247
2023-02-08T07:25:02.352Z,1011.4246
2023-02-08T07:26:01.870Z,1011.5964
2023-02-08T07:28:03.525Z,1011.6308
2023-02-08T07:29:02.359Z,1011.4755
2023-02-08T07:30:01.887Z,1011.6575
2023-02-08T07:31:01.438Z,1011.6721
2023-02-08T07:32:01.941Z,1011.5528
2023-02-08T07:33:01.394Z,1011.5326
2023-02-08T07:34:01.964Z,1011.5125
2023-02-08T07:35:01.475Z,1011.5206
2023-02-08T07:36:01.949Z,1011.5274
2023-02-08T07:37:01.469Z,1011.5547
2023-02-08T07:38:02.039Z,1011.5274
2023-02-08T07:39:01.579Z,1011.5274
2023-02-08T07:40:02.060Z,1011.5001
2023-02-08T07:41:01.556Z,1011.5001
2023-02-08T07:42:02.141Z,1011.4884
2023-02-08T07:43:03.315Z,1011.3792
2023-02-08T07:44:02.139Z,1011.4884
2023-02-08T07:45:01.630Z,1011.4217
2023-02-08T07:46:02.157Z,1011.279
2023-02-08T07:47:01.654Z,1011.5823
2023-02-08T07:48:03.882Z,1011.4821
2023-02-08T07:49:03.406Z,1011.6343
2023-02-08T07:50:02.276Z,1011.5832
2023-02-08T07:51:01.714Z,1011.6128
2023-02-08T07:52:02.268Z,1011.4227
2023-02-08T07:53:01.798Z,1011.5877
2023-02-08T07:54:02.275Z,1011.4581
2023-02-08T07:55:03.500Z,1011.419
2023-02-08T07:56:02.348Z,1011.4343
2023-02-08T07:57:03.683Z,1011.3796
2023-02-08T07:58:02.992Z,1011.6633
2023-02-08T07:59:01.881Z,1011.3715
2023-02-08T08:00:01.352Z,1011.488
2023-02-08T08:01:15.882Z,1011.5427
2023-02-08T08:02:01.399Z,1011.488
2023-02-08T08:03:01.900Z,1011.402
2023-02-08T08:04:01.453Z,1011.7108
2023-02-08T08:05:01.966Z,1011.6919
2023-02-08T08:06:01.473Z,1011.6074
2023-02-08T08:07:01.953Z,1011.6348
2023-02-08T08:08:01.493Z,1011.5801
2023-02-08T08:09:02.033Z,1011.6831
2023-02-08T08:10:01.556Z,1011.7522
2023-02-08T08:11:03.789Z,1011.5875
2023-02-08T08:12:01.579Z,1011.4864
2023-02-08T08:13:03.836Z,1011.4232
2023-02-08T08:14:03.238Z,1011.5542
2023-02-08T08:15:02.112Z,1011.459
2023-02-08T08:16:01.728Z,1011.5431
2023-02-08T08:17:02.152Z,1011.8179
2023-02-08T08:18:01.638Z,1011.499
2023-02-08T08:19:02.256Z,1011.6432
2023-02-08T08:20:01.724Z,1011.4931
2023-02-08T08:21:02.200Z,1011.656
2023-02-08T08:22:01.739Z,1011.3848
2023-02-08T08:23:02.290Z,1011.7944
2023-02-08T08:24:01.796Z,1011.6524
2023-02-08T08:25:02.301Z,1011.4989
2023-02-08T08:26:01.841Z,1011.6301
2023-02-08T08:27:04.801Z,1011.493
2023-02-08T08:28:01.797Z,1011.4463
2023-02-08T08:29:02.433Z,1011.4071
2023-02-08T08:30:02.456Z,1011.6821
2023-02-08T08:32:01.799Z,1011.4304
2023-02-08T08:34:03.577Z,1011.2573
2023-02-08T08:36:03.513Z,1011.4075
2023-02-08T08:37:02.412Z,1011.6403
2023-02-08T08:38:01.883Z,1011.5148
2023-02-08T08:39:01.398Z,1011.5164
2023-02-08T08:40:03.551Z,1011.3952
2023-02-08T08:41:01.393Z,1011.6113
2023-02-08T08:42:01.982Z,1011.3984
2023-02-08T08:43:01.484Z,1011.4553
2023-02-08T08:44:03.635Z,1011.4501
2023-02-08T08:45:01.485Z,1011.2931
2023-02-08T08:46:02.120Z,1011.3088
2023-02-08T08:47:03.181Z,1011.5447
2023-02-08T08:48:02.060Z,1011.3886
2023-02-08T08:49:01.580Z,1011.5351
2023-02-08T08:50:02.129Z,1011.4951
2023-02-08T08:51:03.232Z,1011.4065
2023-02-08T08:52:02.122Z,1011.4354
2023-02-08T08:53:01.656Z,1011.3609
2023-02-08T08:54:03.797Z,1011.4724
2023-02-08T08:55:03.309Z,1011.4185
2023-02-08T08:56:02.209Z,1011.5091
2023-02-08T08:57:01.736Z,1011.241
2023-02-08T08:58:03.901Z,1011.3729
2023-02-08T08:59:03.387Z,1011.423
2023-02-08T09:00:02.284Z,1011.356
2023-02-08T09:01:01.812Z,1011.5369
2023-02-08T09:02:02.321Z,1011.441
2023-02-08T09:03:01.828Z,1011.441
2023-02-08T09:04:02.353Z,1011.3583
2023-02-08T09:05:01.825Z,1011.2285
2023-02-08T09:06:04.028Z,1011.5401
2023-02-08T09:07:01.876Z,1011.3194
2023-02-08T09:08:01.400Z,1011.2859
2023-02-08T09:09:02.559Z,1011.3975
2023-02-08T09:10:01.415Z,1011.4323
2023-02-08T09:11:01.958Z,1011.4399
2023-02-08T09:12:01.406Z,1011.4133
2023-02-08T09:13:02.005Z,1011.4766
2023-02-08T09:14:03.954Z,1011.5114
2023-02-08T09:15:01.973Z,1011.3613
2023-02-08T09:16:01.543Z,1011.4453
2023-02-08T09:17:01.963Z,1011.3346
2023-02-08T09:18:01.503Z,1011.5577
2023-02-08T09:19:02.037Z,1011.5853
2023-02-08T09:20:02.855Z,1011.4545
2023-02-08T09:21:03.700Z,1011.4144
2023-02-08T09:22:01.544Z,1011.4068
2023-02-08T09:23:02.108Z,1011.6014
2023-02-08T09:24:01.664Z,1011.3661
2023-02-08T09:25:03.840Z,1011.4341
2023-02-08T09:26:01.632Z,1011.4344
2023-02-08T09:27:02.112Z,1011.4009
2023-02-08T09:28:01.653Z,1011.5889
2023-02-08T09:29:02.188Z,1011.4462
2023-02-08T09:30:01.702Z,1011.3853
2023-02-08T09:31:02.282Z,1011.5234
2023-02-08T09:32:01.750Z,1011.4958
2023-02-08T09:33:02.266Z,1011.5445
2023-02-08T09:34:03.488Z,1011.5046
2023-02-08T09:35:02.281Z,1011.3813
2023-02-08T09:36:03.484Z,1011.6851
2023-02-08T09:37:02.355Z,1011.4822
2023-02-08T09:38:03.466Z,1011.4483
2023-02-08T09:40:01.817Z,1011.4304
2023-02-08T09:41:02.359Z,1011.3205
2023-02-08T09:42:01.897Z,1011.4383
2023-02-08T09:43:01.401Z,1011.5779
2023-02-08T09:44:01.873Z,1011.4132
2023-02-08T09:45:01.402Z,1011.49
2023-02-08T09:46:01.966Z,1011.4491
2023-02-08T09:47:01.529Z,1011.5887
2023-02-08T09:48:01.963Z,1011.3614
2023-02-08T09:49:03.158Z,1011.3624
2023-02-08T09:50:02.045Z,1011.5719
2023-02-08T09:51:03.233Z,1011.2675
2023-02-08T09:52:02.080Z,1011.4552
2023-02-08T09:53:01.569Z,1011.4704
2023-02-08T09:54:02.125Z,1011.3333
2023-02-08T09:55:01.700Z,1011.5547
2023-02-08T09:56:02.228Z,1011.3056
2023-02-08T09:57:01.649Z,1011.3695
2023-02-08T09:58:02.227Z,1011.4944
2023-02-08T09:59:01.730Z,1011.4186
2023-02-08T10:00:02.232Z,1011.4416
2023-02-08T10:01:02.732Z,1011.2827
2023-02-08T10:02:02.290Z,1011.4089
2023-02-08T10:03:01.853Z,1011.5487
2023-02-08T10:04:02.291Z,1011.5632
2023-02-08T10:05:03.504Z,1011.4319
2023-02-08T10:06:02.382Z,1011.4194
2023-02-08T10:07:01.905Z,1011.4414
2023-02-08T10:08:01.405Z,1011.5183
2023-02-08T10:09:01.898Z,1011.7181
2023-02-08T10:10:01.401Z,1011.5496
2023-02-08T10:11:01.994Z,1011.4258
2023-02-08T10:12:01.529Z,1011.3505
2023-02-08T10:13:01.957Z,1011.4832
2023-02-08T10:14:01.482Z,1011.3881
2023-02-08T10:15:01.963Z,1011.3326
2023-02-08T10:16:01.528Z,1011.4435
2023-02-08T10:17:02.070Z,1011.6659
2023-02-08T10:18:01.633Z,1011.4805
2023-02-08T10:19:02.037Z,1011.5914
2023-02-08T10:20:01.557Z,1011.4382
2023-02-08T10:21:02.122Z,1011.4105
2023-02-08T10:22:01.656Z,1011.565
2023-02-08T10:23:02.117Z,1011.3866
2023-02-08T10:24:03.310Z,1011.5339
2023-02-08T10:25:02.207Z,1011.6696
2023-02-08T10:26:01.758Z,1011.4576
2023-02-08T10:27:02.852Z,1011.5626
2023-02-08T10:28:01.817Z,1011.4526
2023-02-08T10:29:03.952Z,1011.4053
2023-02-08T10:30:01.758Z,1011.518
2023-02-08T10:31:02.375Z,1011.3514
2023-02-08T10:32:01.863Z,1011.4624
2023-02-08T10:33:03.957Z,1011.4353
2023-02-08T10:34:01.804Z,1011.3038
2023-02-08T10:35:04.047Z,1011.2773
2023-02-08T10:36:01.794Z,1011.3328
2023-02-08T10:37:02.994Z,1011.4177
2023-02-08T10:38:01.894Z,1011.4174
2023-02-08T10:39:01.390Z,1011.473
2023-02-08T10:40:01.966Z,1011.4885
2023-02-08T10:41:03.106Z,1011.5162
2023-02-08T10:42:01.973Z,1011.3367
2023-02-08T10:43:01.499Z,1011.2966
2023-02-08T10:44:02.041Z,1011.4387
2023-02-08T10:45:01.576Z,1011.4135
2023-02-08T10:46:02.068Z,1011.3046
2023-02-08T10:47:01.560Z,1011.0677
2023-02-08T10:48:02.067Z,1011.2017
2023-02-08T10:49:01.566Z,1011.2863
2023-02-08T10:50:02.136Z,1011.3419
2023-02-08T10:51:01.646Z,1011.0917
2023-02-08T10:52:03.903Z,1011.1423
2023-02-08T10:53:01.643Z,1011.0114
2023-02-08T10:54:02.240Z,1011.1021
2023-02-08T10:55:01.668Z,1011.1517
2023-02-08T10:56:03.894Z,1011.2425
2023-02-08T10:57:03.418Z,1010.8137
2023-02-08T10:58:02.202Z,1011.3076
2023-02-08T10:59:01.751Z,1011.1214
2023-02-08T11:00:02.302Z,1010.9499
2023-02-08T11:01:01.817Z,1011.0752
2023-02-08T11:02:02.284Z,1010.9439
2023-02-08T11:03:01.818Z,1011.035
2023-02-08T11:04:04.165Z,1010.8483
2023-02-08T11:05:01.887Z,1010.9603
2023-02-08T11:07:01.894Z,1011.0872
2023-02-08T11:09:01.881Z,1010.878
2023-02-08T11:10:02.384Z,1010.9495
2023-02-08T11:11:01.897Z,1010.8185
2023-02-08T11:12:01.413Z,1011.0637
2023-02-08T11:13:01.878Z,1011.0989
2023-02-08T11:14:01.408Z,1010.7931
2023-02-08T11:15:01.880Z,1010.6753
2023-02-08T11:16:01.401Z,1010.6907
2023-02-08T11:17:01.953Z,1010.5514
2023-02-08T11:18:01.501Z,1010.4536
2023-02-08T11:19:02.050Z,1010.6792
2023-02-08T11:20:01.584Z,1010.5269
2023-02-08T11:21:02.058Z,1010.7865
2023-02-08T11:22:03.243Z,1010.6408
2023-02-08T11:23:02.123Z,1010.7111
2023-02-08T11:24:03.374Z,1010.6005
2023-02-08T11:25:02.163Z,1010.6296
2023-02-08T11:26:01.664Z,1010.6305
2023-02-08T11:27:02.123Z,1010.6656
2023-02-08T11:28:01.727Z,1010.8836
2023-02-08T11:29:02.196Z,1010.6129
2023-02-08T11:30:03.342Z,1010.5243
2023-02-08T11:31:02.300Z,1010.6092
2023-02-08T11:32:03.538Z,1010.5956
2023-02-08T11:33:02.218Z,1010.4582